sensor_id;sensor_type;location;lat;lon;timestamp;pressure;altitude;pressure_sealevel;temperature;humidity
64080;BME280;51042;49.696;10.808;2022-10-30T00:00:34;98904.69;;;12.05;100.00
64080;BME280;51042;49.696;10.808;2022-10-30T00:02:59;98899.19;;;12.05;100.00
64080;BME280;51042;49.696;10.808;2022-10-30T00:05:25;98898.41;;;12.05;100.00
64080;BME280;51042;49.696;10.808;2022-10-30T00:07:51;98896.84;;;12.04;100.00
64080;BME280;51042;49.696;10.808;2022-10-30T00:10:18;98900.38;;;12.04;100.00
64080;BME280;51042;49.696;10.808;2022-10-30T00:12:43;98894.56;;;12.02;100.00
64080;BME280;51042;49.696;10.808;2022-10-30T00:15:09;98906.75;;;12.01;100.00
64080;BME280;51042;49.696;10.808;2022-10-30T00:17:35;98904.44;;;12.00;100.00
64080;BME280;51042;49.696;10.808;2022-10-30T00:20:00;98903.34;;;11.97;100.00
64080;BME280;51042;49.696;10.808;2022-10-30T00:22:25;98899.88;;;11.93;100.00
64080;BME280;51042;49.696;10.808;2022-10-30T00:24:50;98908.59;;;11.92;100.00
64080;BME280;51042;49.696;10.808;2022-10-30T00:27:16;98898.00;;;11.90;100.00
64080;BME280;51042;49.696;10.808;2022-10-30T00:29:41;98903.50;;;11.90;100.00
64080;BME280;51042;49.696;10.808;2022-10-30T00:32:07;98902.75;;;11.90;100.00
64080;BME280;51042;49.696;10.808;2022-10-30T00:34:32;98897.91;;;11.94;100.00
64080;BME280;51042;49.696;10.808;2022-10-30T00:36:57;98892.34;;;11.97;100.00
64080;BME280;51042;49.696;10.808;2022-10-30T00:39:23;98900.91;;;11.99;100.00
64080;BME280;51042;49.696;10.808;2022-10-30T00:41:48;98894.56;;;12.02;100.00
64080;BME280;51042;49.696;10.808;2022-10-30T00:49:45;98889.72;;;12.06;100.00
64080;BME280;51042;49.696;10.808;2022-10-30T00:52:15;98894.44;;;12.06;100.00
64080;BME280;51042;49.696;10.808;2022-10-30T00:54:41;98889.38;;;12.04;100.00
64080;BME280;51042;49.696;10.808;2022-10-30T00:57:07;98884.66;;;12.05;100.00
64080;BME280;51042;49.696;10.808;2022-10-30T00:59:33;98890.94;;;12.05;100.00
64080;BME280;51042;49.696;10.808;2022-10-30T01:02:01;98894.44;;;12.06;100.00
64080;BME280;51042;49.696;10.808;2022-10-30T01:04:27;98890.50;;;12.07;100.00
64080;BME280;51042;49.696;10.808;2022-10-30T01:06:55;98885.34;;;12.09;100.00
64080;BME280;51042;49.696;10.808;2022-10-30T01:09:23;98884.91;;;12.10;100.00
64080;BME280;51042;49.696;10.808;2022-10-30T01:11:48;98876.22;;;12.12;100.00
64080;BME280;51042;49.696;10.808;2022-10-30T01:14:15;98887.56;;;12.14;100.00
64080;BME280;51042;49.696;10.808;2022-10-30T01:16:59;98874.59;;;12.14;100.00
64080;BME280;51042;49.696;10.808;2022-10-30T01:31:00;98876.16;;;12.15;100.00
64080;BME280;51042;49.696;10.808;2022-10-30T01:34:46;98868.38;;;12.10;100.00
64080;BME280;51042;49.696;10.808;2022-10-30T01:39:21;98873.56;;;12.08;100.00
64080;BME280;51042;49.696;10.808;2022-10-30T01:41:50;98872.03;;;12.07;100.00
64080;BME280;51042;49.696;10.808;2022-10-30T01:44:17;98866.16;;;12.05;100.00
64080;BME280;51042;49.696;10.808;2022-10-30T01:49:19;98871.78;;;12.02;100.00
64080;BME280;51042;49.696;10.808;2022-10-30T01:52:01;98873.75;;;12.01;100.00
64080;BME280;51042;49.696;10.808;2022-10-30T01:54:57;98870.22;;;12.01;100.00
64080;BME280;51042;49.696;10.808;2022-10-30T01:57:40;98866.34;;;11.98;100.00
64080;BME280;51042;49.696;10.808;2022-10-30T02:00:09;98866.81;;;11.97;100.00
64080;BME280;51042;49.696;10.808;2022-10-30T02:02:37;98860.19;;;11.94;100.00
64080;BME280;51042;49.696;10.808;2022-10-30T02:05:03;98860.53;;;11.96;100.00
64080;BME280;51042;49.696;10.808;2022-10-30T02:07:31;98862.09;;;11.97;100.00
64080;BME280;51042;49.696;10.808;2022-10-30T02:09:56;98856.59;;;11.97;100.00
64080;BME280;51042;49.696;10.808;2022-10-30T02:12:22;98855.81;;;11.97;100.00
64080;BME280;51042;49.696;10.808;2022-10-30T02:14:49;98854.25;;;11.96;100.00
64080;BME280;51042;49.696;10.808;2022-10-30T02:17:21;98861.84;;;11.92;100.00
64080;BME280;51042;49.696;10.808;2022-10-30T02:19:47;98856.34;;;11.92;100.00
64080;BME280;51042;49.696;10.808;2022-10-30T02:22:13;98850.91;;;11.88;100.00
64080;BME280;51042;49.696;10.808;2022-10-30T02:24:38;98854.84;;;11.87;100.00
64080;BME280;51042;49.696;10.808;2022-10-30T02:27:03;98856.41;;;11.88;100.00
64080;BME280;51042;49.696;10.808;2022-10-30T02:29:29;98848.59;;;11.86;100.00
64080;BME280;51042;49.696;10.808;2022-10-30T02:31:54;98859.34;;;11.81;100.00
64080;BME280;51042;49.696;10.808;2022-10-30T02:34:19;98852.38;;;11.76;100.00
64080;BME280;51042;49.696;10.808;2022-10-30T02:36:45;98853.59;;;11.75;100.00
64080;BME280;51042;49.696;10.808;2022-10-30T02:39:10;98851.69;;;11.72;100.00
64080;BME280;51042;49.696;10.808;2022-10-30T02:41:36;98847.38;;;11.71;100.00
64080;BME280;51042;49.696;10.808;2022-10-30T02:44:02;98848.59;;;11.70;100.00
64080;BME280;51042;49.696;10.808;2022-10-30T02:46:27;98849.78;;;11.69;100.00
64080;BME280;51042;49.696;10.808;2022-10-30T02:48:53;98849.09;;;11.65;100.00
64080;BME280;51042;49.696;10.808;2022-10-30T02:51:18;98846.78;;;11.64;100.00
64080;BME280;51042;49.696;10.808;2022-10-30T02:53:43;98844.81;;;11.64;100.00
64080;BME280;51042;49.696;10.808;2022-10-30T02:56:10;98840.97;;;11.62;100.00
64080;BME280;51042;49.696;10.808;2022-10-30T02:58:37;98850.84;;;11.59;100.00
64080;BME280;51042;49.696;10.808;2022-10-30T03:03:31;98840.00;;;11.52;100.00
64080;BME280;51042;49.696;10.808;2022-10-30T03:05:58;98839.66;;;11.50;100.00
64080;BME280;51042;49.696;10.808;2022-10-30T03:08:24;98843.28;;;11.47;100.00
64080;BME280;51042;49.696;10.808;2022-10-30T03:10:49;98836.66;;;11.44;100.00
64080;BME280;51042;49.696;10.808;2022-10-30T03:13:14;98835.56;;;11.42;100.00
64080;BME280;51042;49.696;10.808;2022-10-30T03:15:40;98839.06;;;11.42;100.00
64080;BME280;51042;49.696;10.808;2022-10-30T03:18:05;98837.94;;;11.40;100.00
64080;BME280;51042;49.696;10.808;2022-10-30T03:20:30;98843.03;;;11.41;100.00
64080;BME280;51042;49.696;10.808;2022-10-30T03:22:56;98839.50;;;11.41;100.00
64080;BME280;51042;49.696;10.808;2022-10-30T03:25:21;98840.38;;;11.38;100.00
64080;BME280;51042;49.696;10.808;2022-10-30T03:27:47;98836.75;;;11.41;100.00
64080;BME280;51042;49.696;10.808;2022-10-30T03:30:13;98826.19;;;11.39;100.00
64080;BME280;51042;49.696;10.808;2022-10-30T03:32:38;98827.38;;;11.38;100.00
64080;BME280;51042;49.696;10.808;2022-10-30T03:35:03;98824.47;;;11.45;100.00
64080;BME280;51042;49.696;10.808;2022-10-30T03:37:29;98820.94;;;11.45;100.00
64080;BME280;51042;49.696;10.808;2022-10-30T03:39:54;98821.97;;;11.51;100.00
64080;BME280;51042;49.696;10.808;2022-10-30T03:42:19;98828.94;;;11.56;100.00
64080;BME280;51042;49.696;10.808;2022-10-30T03:44:44;98832.97;;;11.67;100.00
64080;BME280;51042;49.696;10.808;2022-10-30T03:47:10;98832.44;;;11.72;100.00
64080;BME280;51042;49.696;10.808;2022-10-30T03:49:35;98838.88;;;11.66;100.00
64080;BME280;51042;49.696;10.808;2022-10-30T03:52:00;98832.13;;;11.54;100.00
64080;BME280;51042;49.696;10.808;2022-10-30T03:54:26;98846.69;;;11.51;100.00
64080;BME280;51042;49.696;10.808;2022-10-30T03:56:51;98842.16;;;11.44;100.00
64080;BME280;51042;49.696;10.808;2022-10-30T03:59:16;98843.97;;;11.35;100.00
64080;BME280;51042;49.696;10.808;2022-10-30T04:01:42;98849.63;;;11.28;100.00
64080;BME280;51042;49.696;10.808;2022-10-30T04:04:07;98844.75;;;11.19;100.00
64080;BME280;51042;49.696;10.808;2022-10-30T04:06:32;98851.59;;;11.11;100.00
64080;BME280;51042;49.696;10.808;2022-10-30T04:08:57;98858.44;;;11.03;100.00
64080;BME280;51042;49.696;10.808;2022-10-30T04:11:23;98861.34;;;10.96;100.00
64080;BME280;51042;49.696;10.808;2022-10-30T04:13:48;98866.91;;;10.92;100.00
64080;BME280;51042;49.696;10.808;2022-10-30T04:16:13;98869.38;;;10.87;100.00
64080;BME280;51042;49.696;10.808;2022-10-30T04:18:39;98860.88;;;10.81;100.00
64080;BME280;51042;49.696;10.808;2022-10-30T04:21:04;98855.91;;;10.76;100.00
64080;BME280;51042;49.696;10.808;2022-10-30T04:23:29;98859.56;;;10.70;100.00
64080;BME280;51042;49.696;10.808;2022-10-30T04:25:55;98863.22;;;10.63;100.00
64080;BME280;51042;49.696;10.808;2022-10-30T04:28:20;98862.16;;;10.57;100.00
64080;BME280;51042;49.696;10.808;2022-10-30T04:30:45;98868.16;;;10.52;100.00
64080;BME280;51042;49.696;10.808;2022-10-30T04:33:11;98861.22;;;10.47;100.00
64080;BME280;51042;49.696;10.808;2022-10-30T04:35:38;98859.28;;;10.44;100.00
64080;BME280;51042;49.696;10.808;2022-10-30T04:38:05;98860.06;;;10.45;100.00
64080;BME280;51042;49.696;10.808;2022-10-30T04:40:33;98855.06;;;10.40;100.00
64080;BME280;51042;49.696;10.808;2022-10-30T04:43:01;98848.91;;;10.36;100.00
64080;BME280;51042;49.696;10.808;2022-10-30T04:45:27;98850.59;;;10.30;100.00
64080;BME280;51042;49.696;10.808;2022-10-30T04:47:52;98848.25;;;10.28;100.00
64080;BME280;51042;49.696;10.808;2022-10-30T04:50:24;98834.53;;;10.28;100.00
64080;BME280;51042;49.696;10.808;2022-10-30T04:52:57;98842.41;;;10.26;100.00
64080;BME280;51042;49.696;10.808;2022-10-30T04:55:23;98837.38;;;10.25;100.00
64080;BME280;51042;49.696;10.808;2022-10-30T04:57:48;98835.81;;;10.23;100.00
64080;BME280;51042;49.696;10.808;2022-10-30T05:00:13;98839.06;;;10.18;100.00
64080;BME280;51042;49.696;10.808;2022-10-30T05:02:39;98835.94;;;10.16;100.00
64080;BME280;51042;49.696;10.808;2022-10-30T05:05:04;98830.94;;;10.11;100.00
64080;BME280;51042;49.696;10.808;2022-10-30T05:07:29;98836.41;;;10.11;100.00
64080;BME280;51042;49.696;10.808;2022-10-30T05:09:55;98839.97;;;10.08;100.00
64080;BME280;51042;49.696;10.808;2022-10-30T05:12:20;98834.94;;;10.07;100.00
64080;BME280;51042;49.696;10.808;2022-10-30T05:14:46;98839.69;;;10.03;100.00
64080;BME280;51042;49.696;10.808;2022-10-30T05:17:11;98838.22;;;9.98;100.00
64080;BME280;51042;49.696;10.808;2022-10-30T05:19:36;98833.16;;;9.97;100.00
64080;BME280;51042;49.696;10.808;2022-10-30T05:22:02;98837.44;;;9.98;100.00
64080;BME280;51042;49.696;10.808;2022-10-30T05:24:27;98841.03;;;9.95;100.00
64080;BME280;51042;49.696;10.808;2022-10-30T05:26:52;98848.59;;;9.87;100.00
64080;BME280;51042;49.696;10.808;2022-10-30T05:29:18;98845.22;;;9.79;100.00
64080;BME280;51042;49.696;10.808;2022-10-30T05:31:43;98841.28;;;9.80;100.00
64080;BME280;51042;49.696;10.808;2022-10-30T05:34:08;98841.69;;;9.79;100.00
64080;BME280;51042;49.696;10.808;2022-10-30T05:36:34;98841.03;;;9.71;100.00
64080;BME280;51042;49.696;10.808;2022-10-30T05:38:59;98843.47;;;9.66;100.00
64080;BME280;51042;49.696;10.808;2022-10-30T05:41:26;98842.41;;;9.60;100.00
64080;BME280;51042;49.696;10.808;2022-10-30T05:43:52;98842.00;;;9.61;100.00
64080;BME280;51042;49.696;10.808;2022-10-30T05:46:18;98838.84;;;9.63;100.00
64080;BME280;51042;49.696;10.808;2022-10-30T05:48:43;98839.97;;;9.65;100.00
64080;BME280;51042;49.696;10.808;2022-10-30T05:51:08;98836.41;;;9.68;100.00
64080;BME280;51042;49.696;10.808;2022-10-30T05:53:34;98841.88;;;9.68;100.00
64080;BME280;51042;49.696;10.808;2022-10-30T05:55:59;98837.66;;;9.64;100.00
64080;BME280;51042;49.696;10.808;2022-10-30T05:58:24;98843.16;;;9.64;100.00
64080;BME280;51042;49.696;10.808;2022-10-30T06:00:50;98836.88;;;9.63;100.00
64080;BME280;51042;49.696;10.808;2022-10-30T06:03:16;98841.22;;;9.61;100.00
64080;BME280;51042;49.696;10.808;2022-10-30T06:05:43;98836.03;;;9.66;100.00
64080;BME280;51042;49.696;10.808;2022-10-30T06:08:10;98838.72;;;9.70;100.00
64080;BME280;51042;49.696;10.808;2022-10-30T06:10:35;98847.00;;;9.66;100.00
64080;BME280;51042;49.696;10.808;2022-10-30T06:13:02;98842.28;;;9.67;100.00
64080;BME280;51042;49.696;10.808;2022-10-30T06:15:30;98847.00;;;9.66;100.00
64080;BME280;51042;49.696;10.808;2022-10-30T06:17:55;98850.09;;;9.68;100.00
64080;BME280;51042;49.696;10.808;2022-10-30T06:20:22;98850.47;;;9.70;100.00
64080;BME280;51042;49.696;10.808;2022-10-30T06:22:53;98855.09;;;9.73;100.00
64080;BME280;51042;49.696;10.808;2022-10-30T06:25:22;98858.53;;;9.77;100.00
64080;BME280;51042;49.696;10.808;2022-10-30T06:27:48;98859.28;;;9.81;100.00
64080;BME280;51042;49.696;10.808;2022-10-30T06:30:14;98859.97;;;9.86;100.00
64080;BME280;51042;49.696;10.808;2022-10-30T06:32:39;98867.03;;;9.87;100.00
64080;BME280;51042;49.696;10.808;2022-10-30T06:35:05;98868.97;;;9.86;100.00
64080;BME280;51042;49.696;10.808;2022-10-30T06:37:30;98872.78;;;9.92;100.00
64080;BME280;51042;49.696;10.808;2022-10-30T06:39:55;98873.94;;;9.95;100.00
64080;BME280;51042;49.696;10.808;2022-10-30T06:42:21;98875.03;;;9.97;100.00
64080;BME280;51042;49.696;10.808;2022-10-30T06:44:46;98873.00;;;10.01;100.00
64080;BME280;51042;49.696;10.808;2022-10-30T06:47:13;98874.44;;;10.09;100.00
64080;BME280;51042;49.696;10.808;2022-10-30T06:49:38;98866.81;;;10.20;100.00
64080;BME280;51042;49.696;10.808;2022-10-30T06:52:03;98875.97;;;10.34;100.00
64080;BME280;51042;49.696;10.808;2022-10-30T06:54:29;98881.38;;;10.37;100.00
64080;BME280;51042;49.696;10.808;2022-10-30T06:56:54;98884.63;;;10.52;100.00
64080;BME280;51042;49.696;10.808;2022-10-30T06:59:19;98882.53;;;10.59;100.00
64080;BME280;51042;49.696;10.808;2022-10-30T07:01:45;98878.84;;;10.66;100.00
64080;BME280;51042;49.696;10.808;2022-10-30T07:04:10;98882.22;;;10.74;100.00
64080;BME280;51042;49.696;10.808;2022-10-30T07:06:35;98877.00;;;10.79;100.00
64080;BME280;51042;49.696;10.808;2022-10-30T07:09:00;98880.28;;;10.90;100.00
64080;BME280;51042;49.696;10.808;2022-10-30T07:11:26;98871.47;;;10.99;100.00
64080;BME280;51042;49.696;10.808;2022-10-30T07:13:51;98875.16;;;11.09;100.00
64080;BME280;51042;49.696;10.808;2022-10-30T07:16:16;98872.53;;;11.21;100.00
64080;BME280;51042;49.696;10.808;2022-10-30T07:18:42;98873.94;;;11.29;100.00
64080;BME280;51042;49.696;10.808;2022-10-30T07:21:07;98882.00;;;11.36;100.00
64080;BME280;51042;49.696;10.808;2022-10-30T07:23:32;98886.56;;;11.43;100.00
64080;BME280;51042;49.696;10.808;2022-10-30T07:25:58;98873.94;;;11.45;100.00
64080;BME280;51042;49.696;10.808;2022-10-30T07:28:23;98876.69;;;11.62;100.00
64080;BME280;51042;49.696;10.808;2022-10-30T07:30:48;98872.06;;;11.75;100.00
64080;BME280;51042;49.696;10.808;2022-10-30T07:33:13;98879.84;;;11.93;100.00
64080;BME280;51042;49.696;10.808;2022-10-30T07:35:40;98886.91;;;11.94;100.00
64080;BME280;51042;49.696;10.808;2022-10-30T07:38:06;98883.72;;;11.95;100.00
64080;BME280;51042;49.696;10.808;2022-10-30T07:40:35;98885.47;;;11.89;100.00
64080;BME280;51042;49.696;10.808;2022-10-30T07:43:00;98883.81;;;12.08;100.00
64080;BME280;51042;49.696;10.808;2022-10-30T07:45:27;98889.19;;;12.40;100.00
64080;BME280;51042;49.696;10.808;2022-10-30T07:47:53;98891.50;;;12.71;100.00
64080;BME280;51042;49.696;10.808;2022-10-30T07:50:18;98880.19;;;12.94;99.74
64080;BME280;51042;49.696;10.808;2022-10-30T07:52:44;98885.63;;;13.10;97.90
64080;BME280;51042;49.696;10.808;2022-10-30T07:55:10;98891.28;;;13.19;97.02
64080;BME280;51042;49.696;10.808;2022-10-30T07:57:36;98883.22;;;13.25;97.11
64080;BME280;51042;49.696;10.808;2022-10-30T08:00:05;98887.97;;;13.37;97.03
64080;BME280;51042;49.696;10.808;2022-10-30T08:02:33;98897.78;;;13.51;96.60
64080;BME280;51042;49.696;10.808;2022-10-30T08:04:58;98887.94;;;13.62;96.04
64080;BME280;51042;49.696;10.808;2022-10-30T08:07:28;98898.28;;;13.71;95.59
64080;BME280;51042;49.696;10.808;2022-10-30T08:09:56;98895.09;;;13.72;94.92
64080;BME280;51042;49.696;10.808;2022-10-30T08:12:23;98905.34;;;13.84;95.46
64080;BME280;51042;49.696;10.808;2022-10-30T08:14:48;98907.88;;;13.92;95.54
64080;BME280;51042;49.696;10.808;2022-10-30T08:17:14;98911.78;;;14.16;95.18
64080;BME280;51042;49.696;10.808;2022-10-30T08:19:39;98907.16;;;14.47;94.01
64080;BME280;51042;49.696;10.808;2022-10-30T08:22:04;98900.91;;;14.78;92.78
64080;BME280;51042;49.696;10.808;2022-10-30T08:24:30;98905.31;;;14.88;91.20
64080;BME280;51042;49.696;10.808;2022-10-30T08:26:56;98901.34;;;14.98;91.72
64080;BME280;51042;49.696;10.808;2022-10-30T08:29:21;98907.44;;;15.15;91.17
64080;BME280;51042;49.696;10.808;2022-10-30T08:31:47;98907.97;;;15.31;90.91
64080;BME280;51042;49.696;10.808;2022-10-30T08:34:13;98907.75;;;15.47;89.61
64080;BME280;51042;49.696;10.808;2022-10-30T08:36:38;98913.66;;;15.59;89.33
64080;BME280;51042;49.696;10.808;2022-10-30T08:39:04;98906.41;;;15.52;89.00
64080;BME280;51042;49.696;10.808;2022-10-30T08:41:29;98911.31;;;15.57;90.17
64080;BME280;51042;49.696;10.808;2022-10-30T08:43:54;98912.00;;;15.79;89.48
64080;BME280;51042;49.696;10.808;2022-10-30T08:46:20;98899.91;;;15.95;88.53
64080;BME280;51042;49.696;10.808;2022-10-30T08:48:45;98902.22;;;16.06;87.45
64080;BME280;51042;49.696;10.808;2022-10-30T08:51:10;98911.00;;;16.13;86.97
64080;BME280;51042;49.696;10.808;2022-10-30T08:53:36;98905.63;;;16.28;87.21
64080;BME280;51042;49.696;10.808;2022-10-30T08:56:01;98905.00;;;16.51;86.43
64080;BME280;51042;49.696;10.808;2022-10-30T08:58:27;98910.41;;;16.64;85.79
64080;BME280;51042;49.696;10.808;2022-10-30T09:00:52;98906.88;;;16.63;85.70
64080;BME280;51042;49.696;10.808;2022-10-30T09:03:17;98902.09;;;16.73;85.72
64080;BME280;51042;49.696;10.808;2022-10-30T09:05:43;98902.72;;;16.68;86.21
64080;BME280;51042;49.696;10.808;2022-10-30T09:08:08;98888.84;;;16.77;86.11
64080;BME280;51042;49.696;10.808;2022-10-30T09:10:33;98887.53;;;17.05;85.67
64080;BME280;51042;49.696;10.808;2022-10-30T09:12:59;98894.88;;;17.18;85.04
64080;BME280;51042;49.696;10.808;2022-10-30T09:15:26;98893.91;;;17.39;84.24
64080;BME280;51042;49.696;10.808;2022-10-30T09:17:58;98890.34;;;17.38;83.80
64080;BME280;51042;49.696;10.808;2022-10-30T09:20:25;98894.63;;;17.06;85.97
64080;BME280;51042;49.696;10.808;2022-10-30T09:22:51;98898.91;;;17.17;85.43
64080;BME280;51042;49.696;10.808;2022-10-30T09:25:17;98894.53;;;17.34;84.15
64080;BME280;51042;49.696;10.808;2022-10-30T09:27:43;98893.97;;;17.53;83.40
64080;BME280;51042;49.696;10.808;2022-10-30T09:30:08;98892.78;;;17.78;83.21
64080;BME280;51042;49.696;10.808;2022-10-30T09:32:34;98896.38;;;18.17;82.02
64080;BME280;51042;49.696;10.808;2022-10-30T09:34:59;98885.84;;;18.45;80.53
64080;BME280;51042;49.696;10.808;2022-10-30T09:37:24;98887.63;;;18.57;78.73
64080;BME280;51042;49.696;10.808;2022-10-30T09:39:51;98888.38;;;18.58;78.15
64080;BME280;51042;49.696;10.808;2022-10-30T09:52:28;98894.53;;;18.77;77.86
64080;BME280;51042;49.696;10.808;2022-10-30T09:55:14;98894.44;;;18.86;77.43
64080;BME280;51042;49.696;10.808;2022-10-30T10:00:36;98886.97;;;18.39;79.43
64080;BME280;51042;49.696;10.808;2022-10-30T10:05:50;98895.97;;;18.48;80.02
64080;BME280;51042;49.696;10.808;2022-10-30T10:08:23;98884.25;;;18.68;79.09
64080;BME280;51042;49.696;10.808;2022-10-30T10:11:00;98895.59;;;19.08;77.93
64080;BME280;51042;49.696;10.808;2022-10-30T10:13:46;98888.31;;;19.11;77.55
64080;BME280;51042;49.696;10.808;2022-10-30T10:16:33;98889.84;;;18.83;78.21
64080;BME280;51042;49.696;10.808;2022-10-30T10:19:21;98883.31;;;18.86;79.14
64080;BME280;51042;49.696;10.808;2022-10-30T10:21:59;98878.97;;;19.29;78.03
64080;BME280;51042;49.696;10.808;2022-10-30T10:24:30;98883.38;;;19.35;77.50
64080;BME280;51042;49.696;10.808;2022-10-30T10:27:02;98881.56;;;19.47;76.28
64080;BME280;51042;49.696;10.808;2022-10-30T10:29:39;98881.16;;;19.39;76.71
64080;BME280;51042;49.696;10.808;2022-10-30T10:32:32;98880.09;;;19.51;76.50
64080;BME280;51042;49.696;10.808;2022-10-30T10:35:07;98878.59;;;19.36;76.53
64080;BME280;51042;49.696;10.808;2022-10-30T10:52:07;98875.13;;;20.16;73.90
64080;BME280;51042;49.696;10.808;2022-10-30T10:57:31;98878.00;;;20.22;73.78
64080;BME280;51042;49.696;10.808;2022-10-30T11:05:22;98868.88;;;20.42;73.91
64080;BME280;51042;49.696;10.808;2022-10-30T11:07:49;98867.19;;;20.29;74.49
64080;BME280;51042;49.696;10.808;2022-10-30T11:10:18;98861.56;;;20.24;74.67
64080;BME280;51042;49.696;10.808;2022-10-30T11:12:47;98865.25;;;20.35;74.80
64080;BME280;51042;49.696;10.808;2022-10-30T11:17:57;98854.66;;;20.19;75.25
64080;BME280;51042;49.696;10.808;2022-10-30T11:20:37;98857.31;;;20.08;75.55
64080;BME280;51042;49.696;10.808;2022-10-30T11:23:48;98845.59;;;20.04;75.92
64080;BME280;51042;49.696;10.808;2022-10-30T11:26:02;98853.59;;;19.96;75.45
64080;BME280;51042;49.696;10.808;2022-10-30T11:28:33;98848.31;;;19.98;76.05
64080;BME280;51042;49.696;10.808;2022-10-30T11:31:35;98844.16;;;19.88;76.13
64080;BME280;51042;49.696;10.808;2022-10-30T11:36:41;98851.47;;;20.06;76.73
64080;BME280;51042;49.696;10.808;2022-10-30T11:39:10;98847.56;;;19.98;76.05
64080;BME280;51042;49.696;10.808;2022-10-30T11:41:41;98849.50;;;19.92;76.56
64080;BME280;51042;49.696;10.808;2022-10-30T11:44:10;98840.19;;;19.95;76.00
64080;BME280;51042;49.696;10.808;2022-10-30T11:46:36;98839.97;;;19.78;76.47
64080;BME280;51042;49.696;10.808;2022-10-30T11:49:02;98835.84;;;19.74;76.75
64080;BME280;51042;49.696;10.808;2022-10-30T11:51:31;98841.31;;;19.83;76.68
64080;BME280;51042;49.696;10.808;2022-10-30T11:54:00;98834.66;;;19.80;77.07
64080;BME280;51042;49.696;10.808;2022-10-30T11:56:26;98838.84;;;19.90;76.61
64080;BME280;51042;49.696;10.808;2022-10-30T11:58:52;98827.38;;;19.83;76.32
64080;BME280;51042;49.696;10.808;2022-10-30T12:01:24;98834.88;;;19.97;76.56
64080;BME280;51042;49.696;10.808;2022-10-30T12:03:53;98840.94;;;20.16;76.05
64080;BME280;51042;49.696;10.808;2022-10-30T12:08:58;98829.03;;;20.61;74.11
64080;BME280;51042;49.696;10.808;2022-10-30T12:11:42;98832.13;;;20.69;73.15
64080;BME280;51042;49.696;10.808;2022-10-30T12:14:22;98826.25;;;20.93;73.09
64080;BME280;51042;49.696;10.808;2022-10-30T12:16:51;98826.75;;;20.91;72.96
64080;BME280;51042;49.696;10.808;2022-10-30T12:19:20;98814.28;;;20.87;73.62
64080;BME280;51042;49.696;10.808;2022-10-30T12:21:51;98817.84;;;20.87;73.62
64080;BME280;51042;49.696;10.808;2022-10-30T12:24:30;98815.72;;;20.76;73.83
64080;BME280;51042;49.696;10.808;2022-10-30T12:27:00;98819.84;;;20.87;74.00
64080;BME280;51042;49.696;10.808;2022-10-30T12:29:36;98820.00;;;20.72;74.38
64080;BME280;51042;49.696;10.808;2022-10-30T12:32:07;98818.59;;;20.88;73.84
64080;BME280;51042;49.696;10.808;2022-10-30T12:37:37;98809.72;;;21.15;71.63
64080;BME280;51042;49.696;10.808;2022-10-30T12:40:08;98815.00;;;21.13;72.79
64080;BME280;51042;49.696;10.808;2022-10-30T12:43:03;98809.38;;;21.39;72.23
64080;BME280;51042;49.696;10.808;2022-10-30T12:45:40;98816.41;;;21.77;70.91
64080;BME280;51042;49.696;10.808;2022-10-30T12:48:22;98812.25;;;22.09;70.04
64080;BME280;51042;49.696;10.808;2022-10-30T12:53:56;98805.41;;;22.10;69.41
64080;BME280;51042;49.696;10.808;2022-10-30T12:56:42;98800.63;;;22.33;68.77
64080;BME280;51042;49.696;10.808;2022-10-30T12:59:26;98807.22;;;22.24;68.92
64080;BME280;51042;49.696;10.808;2022-10-30T13:05:05;98804.91;;;21.64;69.48
64080;BME280;51042;49.696;10.808;2022-10-30T13:07:46;98796.69;;;21.43;70.01
64080;BME280;51042;49.696;10.808;2022-10-30T13:10:31;98801.31;;;21.57;69.93
64080;BME280;51042;49.696;10.808;2022-10-30T13:13:09;98792.47;;;21.65;69.12
64080;BME280;51042;49.696;10.808;2022-10-30T13:15:42;98793.09;;;21.91;68.92
64080;BME280;51042;49.696;10.808;2022-10-30T13:18:16;98781.50;;;22.04;67.94
64080;BME280;51042;49.696;10.808;2022-10-30T13:20:48;98788.84;;;22.01;67.43
64080;BME280;51042;49.696;10.808;2022-10-30T13:23:21;98786.72;;;21.79;68.55
64080;BME280;51042;49.696;10.808;2022-10-30T13:28:42;98782.97;;;21.99;68.00
64080;BME280;51042;49.696;10.808;2022-10-30T13:34:27;98781.47;;;21.98;68.42
64080;BME280;51042;49.696;10.808;2022-10-30T13:50:47;98781.56;;;21.61;69.33
64080;BME280;51042;49.696;10.808;2022-10-30T13:53:32;98777.47;;;21.56;69.11
64080;BME280;51042;49.696;10.808;2022-10-30T13:56:00;98783.56;;;21.55;69.84
64080;BME280;51042;49.696;10.808;2022-10-30T13:58:34;98775.22;;;21.66;69.61
64080;BME280;51042;49.696;10.808;2022-10-30T14:01:15;98784.81;;;21.54;69.92
64080;BME280;51042;49.696;10.808;2022-10-30T14:06:38;98783.34;;;21.22;68.89
64080;BME280;51042;49.696;10.808;2022-10-30T14:09:27;98779.19;;;21.11;70.32
64080;BME280;51042;49.696;10.808;2022-10-30T14:11:59;98779.94;;;21.06;70.54
64080;BME280;51042;49.696;10.808;2022-10-30T14:14:45;98783.50;;;21.07;71.11
64080;BME280;51042;49.696;10.808;2022-10-30T14:17:15;98782.47;;;21.10;71.84
64080;BME280;51042;49.696;10.808;2022-10-30T14:22:29;98776.97;;;21.15;71.29
64080;BME280;51042;49.696;10.808;2022-10-30T14:24:55;98782.44;;;21.04;70.96
64080;BME280;51042;49.696;10.808;2022-10-30T14:27:30;98779.22;;;20.80;71.89
64080;BME280;51042;49.696;10.808;2022-10-30T14:29:57;98783.38;;;20.59;72.92
64080;BME280;51042;49.696;10.808;2022-10-30T14:37:14;98774.09;;;20.42;75.61
64080;BME280;51042;49.696;10.808;2022-10-30T14:39:53;98771.16;;;20.30;76.99
64080;BME280;51042;49.696;10.808;2022-10-30T14:58:26;98776.81;;;19.49;82.22